Time;durP1;ratioP1;P1;durP2;ratioP2;P2;SDS_P1;SDS_P2;PMS_P1;PMS_P2;Temp;Humidity;BMP_temperature;BMP_pressure;BME280_temperature;BME280_humidity;BME280_pressure;Samples;Min_cycle;Max_cycle;Signal;HPM_P1;HPM_P2
2023/02/18 00:01:24;;;;;;;8.85;4.57;;;;;;;7.71;100.00;100017.97;6357930;27;20074;-80
2023/02/18 00:04:25;;;;;;;10.37;5.97;;;;;;;7.71;100.00;100021.41;6355540;27;20043;-79
2023/02/18 00:07:26;;;;;;;7.82;4.22;;;;;;;7.74;100.00;100013.47;6355266;27;20419;-80
2023/02/18 00:10:27;;;;;;;10.15;4.72;;;;;;;7.74;100.00;100010.88;6355922;27;20040;-76
2023/02/18 00:13:27;;;;;;;5.45;3.78;;;;;;;7.77;100.00;100010.69;6356002;27;20046;-76
2023/02/18 00:16:30;;;;;;;7.28;4.22;;;;;;;7.77;100.00;99996.88;6355336;27;20555;-76
2023/02/18 00:19:30;;;;;;;8.00;4.72;;;;;;;7.76;100.00;100002.97;6356783;27;20103;-76
2023/02/18 00:22:32;;;;;;;7.68;4.80;;;;;;;7.77;100.00;99996.88;6356332;27;20044;-76
2023/02/18 00:25:32;;;;;;;7.57;3.95;;;;;;;7.80;100.00;99994.13;6356295;27;20039;-76
2023/02/18 00:28:34;;;;;;;7.28;4.88;;;;;;;7.84;100.00;100000.84;6355272;27;20063;-75
2023/02/18 00:31:36;;;;;;;8.97;4.47;;;;;;;7.81;100.00;99994.03;6355612;27;20043;-76
2023/02/18 00:34:36;;;;;;;6.20;4.23;;;;;;;7.76;100.00;100000.38;6355641;27;20291;-75
2023/02/18 00:37:37;;;;;;;10.40;6.05;;;;;;;7.72;100.00;99996.25;6354819;27;20271;-76
2023/02/18 00:40:39;;;;;;;7.78;4.95;;;;;;;7.73;100.00;99997.94;6355175;27;20038;-75
2023/02/18 00:43:40;;;;;;;6.30;4.07;;;;;;;7.79;100.00;99993.28;6354714;27;20455;-76
2023/02/18 00:46:41;;;;;;;9.60;4.65;;;;;;;7.77;100.00;99979.53;6359611;27;20123;-75
2023/02/18 00:49:42;;;;;;;13.02;6.03;;;;;;;7.88;100.00;99972.03;6359047;27;20035;-75
2023/02/18 00:52:43;;;;;;;13.10;4.25;;;;;;;7.88;100.00;99974.63;6362079;27;20036;-75
2023/02/18 00:55:46;;;;;;;8.15;4.80;;;;;;;7.92;100.00;99956.28;6359084;27;20123;-75
2023/02/18 00:58:47;;;;;;;8.35;4.40;;;;;;;7.93;100.00;99958.81;6356679;27;20043;-75
2023/02/18 01:01:51;;;;;;;10.68;5.10;;;;;;;7.95;100.00;99941.38;6355709;27;20043;-75
2023/02/18 01:04:52;;;;;;;10.25;5.28;;;;;;;7.96;100.00;99937.84;6355248;27;20051;-75
2023/02/18 01:07:52;;;;;;;7.65;5.00;;;;;;;8.01;100.00;99933.28;6355344;27;20479;-76
2023/02/18 01:10:56;;;;;;;5.97;4.38;;;;;;;7.93;100.00;99938.03;6354365;27;20096;-79
2023/02/18 01:13:56;;;;;;;11.82;5.30;;;;;;;7.93;100.00;99937.16;6354166;27;20422;-79
2023/02/18 01:16:57;;;;;;;11.25;5.47;;;;;;;7.93;100.00;99948.44;6355836;27;20043;-79
2023/02/18 01:19:58;;;;;;;9.10;5.32;;;;;;;7.93;100.00;99935.44;6354450;27;20047;-79
2023/02/18 01:22:59;;;;;;;7.63;4.88;;;;;;;7.96;100.00;99921.44;6354358;27;20041;-79
2023/02/18 01:26:02;;;;;;;10.98;4.65;;;;;;;7.90;100.00;99929.56;6355590;27;20035;-79
2023/02/18 01:29:03;;;;;;;7.93;4.85;;;;;;;7.91;100.00;99926.88;6354935;27;20453;-79
2023/02/18 01:32:04;;;;;;;9.85;6.00;;;;;;;7.88;100.00;99914.88;6355301;27;20043;-79
2023/02/18 01:35:06;;;;;;;5.78;3.88;;;;;;;7.87;100.00;99913.19;6358756;27;20062;-79
2023/02/18 01:38:07;;;;;;;16.80;5.07;;;;;;;7.86;100.00;99911.53;6359181;27;20038;-78
2023/02/18 01:41:08;;;;;;;9.88;4.28;;;;;;;7.87;100.00;99909.78;6358118;27;20039;-79
2023/02/18 01:44:21;;;;;;;8.80;5.28;;;;;;;7.93;100.00;99914.66;6359687;27;20104;-79
2023/02/18 01:47:25;;;;;;;9.90;5.50;;;;;;;7.93;100.00;99919.84;6367201;27;20039;-79
2023/02/18 01:50:26;;;;;;;9.95;5.30;;;;;;;7.97;100.00;99902.31;6366170;27;20452;-79
2023/02/18 01:53:35;;;;;;;9.93;4.83;;;;;;;7.95;100.00;99899.81;6360752;27;20035;-78
2023/02/18 01:56:58;;;;;;;14.80;5.65;;;;;;;7.96;100.00;99906.69;6361704;27;20152;-78
2023/02/18 02:00:05;;;;;;;9.13;4.85;;;;;;;7.95;100.00;99901.56;6359340;27;20039;-78
2023/02/18 02:03:06;;;;;;;7.70;5.47;;;;;;;7.85;100.00;99894.25;6359208;27;20380;-79
2023/02/18 02:06:17;;;;;;;10.30;5.05;;;;;;;7.90;100.00;99899.22;6360340;27;20039;-78
2023/02/18 02:09:20;;;;;;;14.15;6.20;;;;;;;7.89;100.00;99892.34;6359203;27;20087;-78
2023/02/18 02:12:52;;;;;;;12.35;5.10;;;;;;;7.81;100.00;99890.16;6358432;27;20039;-78
2023/02/18 02:16:03;;;;;;;12.05;5.15;;;;;;;7.72;100.00;99893.22;6359198;27;20071;-78
2023/02/18 02:19:22;;;;;;;7.88;4.72;;;;;;;7.83;100.00;99890.91;6375293;27;20034;-79
2023/02/18 02:22:44;;;;;;;10.02;5.22;;;;;;;8.03;100.00;99889.00;6359792;27;20031;-78
2023/02/18 02:26:13;;;;;;;13.23;5.55;;;;;;;8.06;100.00;99878.47;6358872;27;20071;-78
2023/02/18 02:29:41;;;;;;;7.57;4.68;;;;;;;8.08;100.00;99879.22;6357644;27;20558;-78
2023/02/18 02:33:24;;;;;;;9.27;4.88;;;;;;;8.04;100.00;99873.34;6358764;27;20094;-79
2023/02/18 02:36:35;;;;;;;13.55;4.97;;;;;;;8.11;100.00;99865.22;6350454;27;20236;-78
2023/02/18 02:39:45;;;;;;;5.30;3.03;;;;;;;8.35;100.00;99869.09;6358266;27;20032;-78
2023/02/18 02:42:46;;;;;;;8.10;3.33;;;;;;;8.66;100.00;99854.41;6359148;27;20039;-79
2023/02/18 02:46:17;;;;;;;6.70;3.30;;;;;;;8.79;100.00;99846.75;6356515;27;20032;-79
2023/02/18 02:49:32;;;;;;;4.05;2.40;;;;;;;8.93;100.00;99849.41;6345244;27;20090;-78
2023/02/18 02:52:38;;;;;;;3.95;2.65;;;;;;;9.06;100.00;99831.34;6359425;27;20115;-79
2023/02/18 02:55:41;;;;;;;4.10;2.17;;;;;;;9.20;100.00;99838.31;6359802;27;20080;-78
2023/02/18 02:58:58;;;;;;;4.45;2.33;;;;;;;9.38;100.00;99850.25;6374432;27;20498;-78
2023/02/18 03:02:18;;;;;;;6.15;2.95;;;;;;;9.40;100.00;99853.59;6360153;27;20046;-78
2023/02/18 03:05:34;;;;;;;4.63;3.00;;;;;;;9.38;100.00;99852.84;6357652;27;20102;-78
2023/02/18 03:09:01;;;;;;;7.82;3.60;;;;;;;9.34;100.00;99869.59;6359068;27;20461;-78
2023/02/18 03:12:13;;;;;;;6.40;2.88;;;;;;;9.31;100.00;99875.00;6358029;27;20122;-78
2023/02/18 03:15:20;;;;;;;7.17;3.83;;;;;;;9.24;100.00;99874.47;6356303;27;20044;-78
2023/02/18 03:18:33;;;;;;;6.15;3.80;;;;;;;9.21;100.00;99876.44;6374499;27;20088;-78
2023/02/18 03:21:50;;;;;;;8.13;4.05;;;;;;;9.19;100.00;99878.31;6356317;27;20494;-78
2023/02/18 03:24:55;;;;;;;5.88;3.97;;;;;;;9.10;100.00;99878.81;6357952;27;20039;-78
2023/02/18 03:28:01;;;;;;;8.30;4.13;;;;;;;9.05;100.00;99866.09;6357125;27;20114;-78
2023/02/18 03:31:07;;;;;;;7.75;4.03;;;;;;;9.03;100.00;99871.38;6357630;27;20040;-78
2023/02/18 03:34:12;;;;;;;10.30;4.10;;;;;;;9.07;100.00;99877.25;6359541;27;20523;-78
2023/02/18 03:37:14;;;;;;;5.45;2.95;;;;;;;9.04;100.00;99872.22;6358784;27;20067;-78
2023/02/18 03:40:16;;;;;;;9.23;4.13;;;;;;;9.01;100.00;99875.00;6358854;27;20039;-78
2023/02/18 03:43:19;;;;;;;7.25;3.47;;;;;;;8.99;100.00;99884.66;6357400;27;20031;-78
2023/02/18 03:46:23;;;;;;;9.60;2.88;;;;;;;9.00;100.00;99874.16;6357154;27;20039;-78
2023/02/18 03:49:24;;;;;;;7.95;3.33;;;;;;;9.00;100.00;99878.53;6355088;27;20030;-78
2023/02/18 03:52:24;;;;;;;8.15;3.90;;;;;;;9.01;100.00;99885.41;6357224;27;20111;-78
2023/02/18 03:55:25;;;;;;;7.32;3.72;;;;;;;9.06;100.00;99893.81;6354737;27;20054;-77
2023/02/18 03:58:26;;;;;;;12.38;4.13;;;;;;;9.06;100.00;99891.19;6357439;27;20040;-78
2023/02/18 04:01:27;;;;;;;6.95;3.92;;;;;;;9.07;100.00;99882.44;6354741;27;21404;-78
2023/02/18 04:04:32;;;;;;;7.25;3.83;;;;;;;9.14;100.00;99885.53;6355169;27;20492;-78
2023/02/18 04:07:33;;;;;;;9.13;3.90;;;;;;;9.12;100.00;99892.59;6359864;27;20555;-77
2023/02/18 04:10:34;;;;;;;5.32;2.85;;;;;;;9.11;100.00;99883.94;6356163;27;20044;-77
2023/02/18 04:13:35;;;;;;;7.53;3.33;;;;;;;9.06;100.00;99886.81;6352737;27;20047;-78
2023/02/18 04:16:36;;;;;;;4.03;2.75;;;;;;;9.07;100.00;99891.09;6347334;28;20044;-78
2023/02/18 04:19:37;;;;;;;5.70;3.65;;;;;;;9.10;100.00;99895.31;6354632;27;20484;-77
2023/02/18 04:22:38;;;;;;;6.57;4.03;;;;;;;9.17;100.00;99893.19;6356785;27;20043;-78
2023/02/18 04:25:39;;;;;;;13.75;4.10;;;;;;;9.14;100.00;99899.41;6356641;27;20032;-78
2023/02/18 04:28:40;;;;;;;5.35;2.83;;;;;;;9.13;100.00;99897.72;6355116;27;20046;-77
2023/02/18 04:31:41;;;;;;;7.47;3.78;;;;;;;9.09;100.00;99893.59;6356978;27;20035;-77
2023/02/18 04:34:42;;;;;;;5.80;3.88;;;;;;;9.11;100.00;99896.13;6354540;27;20489;-78
2023/02/18 04:37:42;;;;;;;7.05;3.95;;;;;;;9.10;100.00;99890.09;6372429;27;20525;-77
2023/02/18 04:40:43;;;;;;;7.32;3.33;;;;;;;9.02;100.00;99887.09;6353416;27;20053;-77
2023/02/18 04:43:46;;;;;;;6.57;3.47;;;;;;;9.05;100.00;99889.50;6356026;27;20046;-77
2023/02/18 04:46:47;;;;;;;5.30;2.72;;;;;;;9.09;100.00;99904.03;6358437;27;20039;-78
2023/02/18 04:49:50;;;;;;;7.93;3.58;;;;;;;9.14;100.00;99901.16;6356395;27;20875;-77
2023/02/18 04:52:51;;;;;;;10.45;5.53;;;;;;;9.11;100.00;99899.56;6356312;27;20053;-78
2023/02/18 04:55:53;;;;;;;10.95;5.05;;;;;;;9.18;100.00;99907.84;6355348;27;20039;-78
2023/02/18 04:58:54;;;;;;;5.57;3.08;;;;;;;9.16;100.00;99913.16;6355725;27;20042;-77
2023/02/18 05:01:55;;;;;;;5.13;2.58;;;;;;;9.19;100.00;99923.41;6354907;27;20059;-77
2023/02/18 05:04:55;;;;;;;7.25;2.90;;;;;;;9.20;100.00;99921.63;6356723;27;20046;-77
2023/02/18 05:07:56;;;;;;;2.92;2.05;;;;;;;9.23;100.00;99918.84;6353171;27;20043;-78
2023/02/18 05:10:57;;;;;;;5.15;2.60;;;;;;;9.29;100.00;99923.72;6355096;27;20062;-77
2023/02/18 05:13:58;;;;;;;4.28;2.42;;;;;;;9.27;100.00;99926.41;6355873;27;20043;-78
2023/02/18 05:17:01;;;;;;;3.15;1.75;;;;;;;9.18;100.00;99923.47;6353613;27;20898;-77
2023/02/18 05:20:04;;;;;;;4.50;2.75;;;;;;;9.23;100.00;99931.88;6355155;27;20111;-77
2023/02/18 05:23:05;;;;;;;2.75;1.90;;;;;;;9.23;100.00;99926.66;6355417;27;20039;-77
2023/02/18 05:26:08;;;;;;;4.47;1.55;;;;;;;9.16;100.00;99938.34;6355626;27;20036;-77
2023/02/18 05:29:09;;;;;;;1.95;1.15;;;;;;;9.25;100.00;99956.06;6354660;27;20058;-77
2023/02/18 05:32:12;;;;;;;6.13;2.03;;;;;;;9.42;100.00;99947.28;6355247;27;20035;-77
2023/02/18 05:35:13;;;;;;;4.70;1.67;;;;;;;9.53;100.00;99950.06;6354239;27;20080;-77
2023/02/18 05:38:14;;;;;;;3.33;2.05;;;;;;;9.50;100.00;99945.06;6353509;27;20059;-77
2023/02/18 05:41:17;;;;;;;4.53;1.90;;;;;;;9.48;100.00;99946.91;6354737;27;20479;-77
2023/02/18 05:44:29;;;;;;;2.78;1.75;;;;;;;9.49;100.00;99948.56;6354158;27;20039;-77
2023/02/18 05:47:32;;;;;;;2.30;1.33;;;;;;;9.53;100.00;99955.28;6353682;27;20507;-77
2023/02/18 05:50:33;;;;;;;3.35;1.90;;;;;;;9.59;100.00;99952.31;6355229;27;20058;-77
2023/02/18 05:53:34;;;;;;;6.93;2.25;;;;;;;9.55;100.00;99945.63;6354618;27;20102;-77
2023/02/18 05:56:35;;;;;;;3.03;1.80;;;;;;;9.64;100.00;99958.13;6354896;27;20047;-77
2023/02/18 05:59:36;;;;;;;3.03;1.90;;;;;;;9.63;100.00;99948.59;6354343;27;20426;-77
2023/02/18 06:02:39;;;;;;;2.83;1.73;;;;;;;9.66;100.00;99939.81;6355171;27;20046;-77
2023/02/18 06:05:42;;;;;;;1.77;1.25;;;;;;;9.67;100.00;99944.91;6357156;27;20046;-77
2023/02/18 06:08:45;;;;;;;2.25;1.80;;;;;;;9.75;100.00;99954.88;6355424;27;20036;-77
2023/02/18 06:11:46;;;;;;;3.38;1.67;;;;;;;9.76;100.00;99950.50;6355911;27;20525;-77
2023/02/18 06:14:47;;;;;;;6.15;3.08;;;;;;;9.78;100.00;99954.72;6354837;27;20047;-77
2023/02/18 06:17:49;;;;;;;3.55;2.00;;;;;;;9.84;100.00;99956.09;6336680;27;20441;-77
2023/02/18 06:20:50;;;;;;;1.95;1.60;;;;;;;9.79;100.00;99953.75;6359491;27;20123;-77
2023/02/18 06:23:52;;;;;;;1.90;1.27;;;;;;;9.82;100.00;99945.78;6358959;27;20043;-77
2023/02/18 06:26:55;;;;;;;2.15;1.60;;;;;;;9.88;100.00;99936.72;6359929;27;20414;-77
2023/02/18 06:29:56;;;;;;;2.55;1.80;;;;;;;9.89;100.00;99935.81;6358363;27;20066;-78
2023/02/18 06:32:57;;;;;;;2.08;1.45;;;;;;;9.85;100.00;99958.63;6358894;27;20043;-78
2023/02/18 06:36:05;;;;;;;2.75;1.77;;;;;;;9.78;100.00;99972.09;6358033;27;20396;-78
2023/02/18 06:39:10;;;;;;;6.13;2.47;;;;;;;9.63;100.00;99971.22;6384541;27;20058;-78
2023/02/18 06:42:10;;;;;;;3.78;2.13;;;;;;;9.57;100.00;99977.63;6359904;27;20032;-78
2023/02/18 06:45:11;;;;;;;5.03;2.20;;;;;;;9.54;100.00;99993.44;6368517;27;20078;-78
2023/02/18 06:48:16;;;;;;;3.03;2.10;;;;;;;9.49;100.00;99977.22;6373847;27;20046;-78
2023/02/18 06:51:18;;;;;;;3.03;1.98;;;;;;;9.48;100.00;99992.03;6368399;27;20092;-75
2023/02/18 06:54:19;;;;;;;10.45;4.05;;;;;;;9.54;100.00;99997.81;6360976;27;20509;-75
2023/02/18 06:57:19;;;;;;;5.28;2.40;;;;;;;9.49;100.00;100005.88;6374828;27;20350;-75
2023/02/18 07:00:21;;;;;;;6.63;3.28;;;;;;;9.52;100.00;100008.31;6372673;27;20043;-78
2023/02/18 07:03:22;;;;;;;4.18;3.10;;;;;;;9.53;100.00;100017.78;6368041;27;20032;-78
2023/02/18 07:06:25;;;;;;;4.60;2.35;;;;;;;9.56;100.00;100027.22;6353549;27;20047;-76
2023/02/18 07:09:31;;;;;;;4.82;2.60;;;;;;;9.54;100.00;100036.88;6349061;28;20099;-76
2023/02/18 07:12:32;;;;;;;8.95;3.42;;;;;;;9.53;100.00;100035.19;6349064;28;20047;-76
2023/02/18 07:15:36;;;;;;;6.17;3.03;;;;;;;9.56;100.00;100032.44;6347874;28;20092;-77
2023/02/18 07:18:37;;;;;;;4.20;2.83;;;;;;;9.57;100.00;100039.31;6348972;27;20279;-77
2023/02/18 07:21:37;;;;;;;6.60;3.13;;;;;;;9.60;100.00;100032.16;6374049;27;20169;-77
2023/02/18 07:24:39;;;;;;;5.35;3.08;;;;;;;9.67;100.00;100036.09;6358246;27;20046;-77
2023/02/18 07:27:40;;;;;;;8.65;2.47;;;;;;;9.63;100.00;100036.34;6356245;27;20047;-77
2023/02/18 07:30:40;;;;;;;9.25;2.90;;;;;;;9.72;100.00;100034.97;6363107;27;20372;-77
2023/02/18 07:33:41;;;;;;;4.35;2.30;;;;;;;9.81;100.00;100037.06;6367755;27;20491;-77
2023/02/18 07:36:42;;;;;;;3.22;1.75;;;;;;;9.85;100.00;100041.16;6347165;28;20043;-77
2023/02/18 07:39:46;;;;;;;3.17;2.17;;;;;;;9.96;100.00;100045.75;6346999;28;20035;-77
2023/02/18 07:42:47;;;;;;;15.88;7.93;;;;;;;9.97;100.00;100047.44;6359598;27;20031;-77
2023/02/18 07:45:48;;;;;;;14.43;6.28;;;;;;;10.13;100.00;100052.56;6348127;28;20063;-77
2023/02/18 07:48:49;;;;;;;8.20;3.75;;;;;;;10.18;100.00;100040.94;6346778;28;20043;-77
2023/02/18 07:51:50;;;;;;;6.93;3.30;;;;;;;10.28;100.00;100039.47;6348008;28;20085;-77
2023/02/18 07:54:51;;;;;;;2.30;1.50;;;;;;;10.28;100.00;100036.88;6354295;27;20071;-77
2023/02/18 07:57:59;;;;;;;2.22;1.48;;;;;;;10.36;100.00;100035.59;6347909;27;20414;-77
2023/02/18 08:01:08;;;;;;;4.50;1.92;;;;;;;10.41;100.00;100038.75;6347635;28;20142;-77
2023/02/18 08:04:09;;;;;;;4.00;2.53;;;;;;;10.40;100.00;100040.53;6363379;27;20537;-77
2023/02/18 08:07:15;;;;;;;3.58;2.20;;;;;;;10.48;100.00;100042.69;6369023;27;20122;-77
2023/02/18 08:10:18;;;;;;;2.65;1.67;;;;;;;10.62;100.00;100042.66;6353233;27;20483;-77
2023/02/18 08:13:18;;;;;;;2.58;1.75;;;;;;;10.70;100.00;100042.19;6347007;27;20043;-77
2023/02/18 08:16:21;;;;;;;2.70;1.58;;;;;;;10.76;98.99;100049.66;6346728;28;20092;-77
2023/02/18 08:19:21;;;;;;;4.40;1.88;;;;;;;10.88;98.29;100045.44;6346165;28;20131;-77
2023/02/18 08:22:22;;;;;;;3.78;1.88;;;;;;;10.87;100.00;100054.19;6358745;27;20475;-74
2023/02/18 08:25:23;;;;;;;1.98;1.10;;;;;;;10.82;100.00;100057.09;6346880;28;20050;-74
2023/02/18 08:28:25;;;;;;;2.35;1.65;;;;;;;10.96;97.13;100052.81;6347079;28;20406;-74
2023/02/18 08:31:28;;;;;;;3.00;1.75;;;;;;;11.05;94.55;100054.81;6365681;27;20043;-74
2023/02/18 08:34:29;;;;;;;1.25;1.10;;;;;;;11.20;93.57;100058.22;6363342;27;20518;-74
2023/02/18 08:37:30;;;;;;;2.45;1.60;;;;;;;11.27;89.61;100055.16;6371500;27;20043;-74
2023/02/18 08:40:31;;;;;;;1.80;1.35;;;;;;;11.44;86.86;100059.28;6371882;27;20046;-74
2023/02/18 08:43:33;;;;;;;1.90;1.25;;;;;;;11.48;85.42;100063.38;6371850;27;20498;-74
2023/02/18 08:46:34;;;;;;;4.50;2.35;;;;;;;11.70;84.48;100067.22;6370674;27;20491;-74
2023/02/18 08:49:35;;;;;;;7.28;2.10;;;;;;;11.63;84.01;100061.56;6369534;27;20116;-74
2023/02/18 08:52:36;;;;;;;2.10;1.30;;;;;;;11.79;82.84;100066.59;6371115;27;20043;-74
2023/02/18 08:55:39;;;;;;;7.55;1.92;;;;;;;11.88;83.67;100058.19;6370679;27;20050;-74
2023/02/18 08:58:41;;;;;;;3.92;2.15;;;;;;;11.99;82.80;100057.47;6366942;27;20040;-74
2023/02/18 09:01:42;;;;;;;2.75;1.40;;;;;;;11.98;84.24;100062.81;6363758;27;20039;-75
2023/02/18 09:04:43;;;;;;;4.68;1.73;;;;;;;11.89;85.83;100066.88;6370455;27;20043;-77
2023/02/18 09:07:44;;;;;;;3.40;1.25;;;;;;;11.80;86.23;100075.31;6371667;27;20035;-77
2023/02/18 09:10:45;;;;;;;2.00;1.25;;;;;;;11.70;87.00;100062.00;6369409;27;20043;-77
2023/02/18 09:13:46;;;;;;;2.63;1.20;;;;;;;11.63;87.38;100072.00;6369592;27;20035;-74
2023/02/18 09:16:47;;;;;;;5.07;2.08;;;;;;;11.60;87.85;100066.13;6366725;27;20040;-74
2023/02/18 09:19:48;;;;;;;3.60;2.53;;;;;;;11.65;86.81;100077.13;6363703;27;20035;-74
2023/02/18 09:22:51;;;;;;;7.88;2.60;;;;;;;11.73;87.45;100077.47;6349754;28;20039;-74
2023/02/18 09:25:52;;;;;;;3.13;1.48;;;;;;;11.54;87.98;100075.22;6371319;27;20067;-77
2023/02/18 09:28:56;;;;;;;1.85;1.40;;;;;;;11.62;88.23;100066.88;6370320;28;20046;-77
2023/02/18 09:32:01;;;;;;;2.97;2.05;;;;;;;11.77;88.38;100078.09;6370345;28;20122;-77
2023/02/18 09:35:04;;;;;;;1.65;0.82;;;;;;;11.67;88.32;100083.94;6369692;27;20498;-77
2023/02/18 09:38:06;;;;;;;2.22;1.13;;;;;;;11.63;89.90;100089.44;6371142;27;20107;-74
2023/02/18 09:41:16;;;;;;;1.58;1.25;;;;;;;11.63;90.77;100086.84;6369993;27;20043;-77
2023/02/18 09:44:20;;;;;;;1.55;1.30;;;;;;;11.72;89.94;100074.97;6358581;28;20043;-77
2023/02/18 09:47:41;;;;;;;1.25;1.08;;;;;;;11.67;90.55;100067.41;6359834;27;20039;-77
2023/02/18 09:50:51;;;;;;;4.15;1.80;;;;;;;11.78;91.56;100074.56;6347001;27;20043;-74
2023/02/18 09:53:52;;;;;;;2.35;1.63;;;;;;;11.84;92.63;100069.75;6354173;27;20043;-75
2023/02/18 09:56:55;;;;;;;1.77;1.45;;;;;;;11.84;92.38;100074.13;6366824;27;20044;-75
2023/02/18 10:00:01;;;;;;;2.20;1.30;;;;;;;11.86;93.52;100080.09;6366652;27;20122;-74
2023/02/18 10:03:27;;;;;;;2.90;1.90;;;;;;;12.01;92.91;100078.31;6374814;27;20039;-75
2023/02/18 10:06:33;;;;;;;3.88;2.38;;;;;;;12.10;92.08;100081.13;6355261;27;20039;-75
2023/02/18 10:09:36;;;;;;;1.27;0.80;;;;;;;12.14;90.08;100080.94;6349087;28;20051;-75
2023/02/18 10:12:36;;;;;;;;;;;;;;;12.43;87.34;100084.19;6383858;27;20047;-74
2023/02/18 10:15:37;;;;;;;1.77;0.95;;;;;;;12.57;86.45;100084.06;6350309;28;20341;-77
2023/02/18 10:18:48;;;;;;;3.30;1.17;;;;;;;12.48;86.51;100088.16;6366884;27;20042;-77
2023/02/18 10:21:51;;;;;;;1.25;0.85;;;;;;;12.42;87.28;100093.81;6367591;27;20031;-74
2023/02/18 10:25:01;;;;;;;0.95;0.85;;;;;;;12.42;86.97;100095.59;6366467;27;20487;-75
2023/02/18 10:28:02;;;;;;;2.30;1.65;;;;;;;12.49;87.04;100089.81;6349830;28;20039;-74
2023/02/18 10:31:10;;;;;;;2.22;1.60;;;;;;;12.50;85.42;100088.91;6363619;27;20055;-77
2023/02/18 10:34:28;;;;;;;3.55;1.90;;;;;;;12.69;84.15;100093.69;6360943;27;20507;-77
2023/02/18 10:37:32;;;;;;;3.15;2.15;;;;;;;12.58;83.22;100085.75;6353179;27;20050;-75
2023/02/18 10:41:13;;;;;;;4.55;1.10;;;;;;;12.57;83.29;100072.78;6370902;27;20050;-78
2023/02/18 10:44:28;;;;;;;3.53;1.02;;;;;;;12.72;81.64;100084.78;6340070;27;20086;-74
2023/02/18 10:47:36;;;;;;;2.63;1.25;;;;;;;12.70;80.53;100081.44;6368328;27;20051;-74
2023/02/18 10:50:41;;;;;;;3.00;1.40;;;;;;;12.82;80.22;100074.53;6373955;27;20039;-78
2023/02/18 10:53:44;;;;;;;2.83;1.30;;;;;;;12.63;81.25;100061.88;6374842;27;20475;-77
2023/02/18 10:56:49;;;;;;;1.92;1.20;;;;;;;12.62;82.10;100061.06;6375067;27;20043;-75
2023/02/18 11:00:22;;;;;;;1.42;1.23;;;;;;;12.72;80.89;100068.25;6373530;27;20047;-77
2023/02/18 11:03:41;;;;;;;2.78;1.38;;;;;;;12.69;81.82;100067.53;6362948;27;20436;-77
2023/02/18 11:06:48;;;;;;;1.48;1.05;;;;;;;12.63;83.16;100054.84;6347479;28;20040;-78
2023/02/18 11:09:52;;;;;;;1.23;0.90;;;;;;;12.72;84.56;100055.16;6347769;27;20499;-75
2023/02/18 11:12:59;;;;;;;0.80;0.68;;;;;;;12.59;86.52;100053.41;6349019;28;20043;-75
2023/02/18 11:16:05;;;;;;;1.58;1.13;;;;;;;12.44;88.15;100068.38;6372686;27;20482;-75
2023/02/18 11:19:38;;;;;;;2.17;1.50;;;;;;;12.48;87.76;100058.56;6347220;28;20039;-74
2023/02/18 11:22:40;;;;;;;5.93;3.10;;;;;;;12.36;88.60;100044.53;6365461;27;20039;-74
2023/02/18 11:25:51;;;;;;;4.55;2.92;;;;;;;12.39;88.93;100046.09;6373977;27;20050;-78
2023/02/18 11:28:59;;;;;;;4.13;2.42;;;;;;;12.37;89.36;100042.75;6359370;27;20058;-78
2023/02/18 11:32:00;;;;;;;40.13;16.00;;;;;;;12.45;88.22;100037.81;6402148;27;20049;-77
2023/02/18 11:35:05;;;;;;;41.55;15.82;;;;;;;12.38;86.43;100042.63;6373653;27;20414;-74
2023/02/18 11:38:22;;;;;;;4.70;2.58;;;;;;;12.38;85.75;100029.56;6372507;27;20406;-74
2023/02/18 11:41:30;;;;;;;4.40;2.72;;;;;;;12.39;87.39;100040.84;6373534;27;20043;-77
2023/02/18 11:44:30;;;;;;;74.40;29.77;;;;;;;12.38;87.61;100029.56;6372631;27;20043;-78
2023/02/18 11:47:36;;;;;;;5.38;3.65;;;;;;;12.34;87.51;100032.50;6373820;27;20478;-77
2023/02/18 11:50:37;;;;;;;3.25;1.75;;;;;;;12.22;86.88;100032.38;6373605;27;20148;-78
2023/02/18 11:53:58;;;;;;;55.40;23.77;;;;;;;12.29;85.48;100030.16;6371976;27;20042;-74
2023/02/18 11:57:02;;;;;;;6.75;4.20;;;;;;;12.34;86.50;100029.88;6373183;27;20054;-75
2023/02/18 12:00:33;;;;;;;9.50;2.90;;;;;;;12.24;87.44;100022.66;6372004;27;20035;-78
2023/02/18 12:03:55;;;;;;;4.57;1.75;;;;;;;12.36;87.18;100020.16;6371962;27;20095;-77
2023/02/18 12:07:56;;;;;;;3.83;1.90;;;;;;;12.46;88.13;100019.41;6392118;27;20092;-77
2023/02/18 12:11:08;;;;;;;8.52;3.80;;;;;;;12.60;87.49;100018.44;6320535;28;20086;-75
2023/02/18 12:14:17;;;;;;;5.32;2.03;;;;;;;12.64;86.25;100017.28;6327138;27;20567;-75
2023/02/18 12:17:48;;;;;;;2.35;1.60;;;;;;;12.75;86.49;100013.91;6370661;27;20043;-77
2023/02/18 12:21:15;;;;;;;1.88;1.30;;;;;;;12.81;86.15;99997.75;6368408;27;20050;-77
2023/02/18 12:24:40;;;;;;;2.38;1.88;;;;;;;12.88;86.11;100001.59;6372506;27;20045;-75
2023/02/18 12:28:11;;;;;;;6.50;2.00;;;;;;;12.95;85.63;99998.53;6345901;27;20040;-78
2023/02/18 12:31:14;;;;;;;5.57;3.13;;;;;;;12.99;86.41;99990.38;6336188;28;20060;-75
2023/02/18 12:34:25;;;;;;;6.75;2.63;;;;;;;13.01;86.23;99979.75;6346742;27;20412;-75
2023/02/18 12:37:57;;;;;;;4.00;2.50;;;;;;;12.99;88.17;99994.75;6371494;27;20177;-74
2023/02/18 12:41:21;;;;;;;4.20;1.77;;;;;;;12.94;88.78;99984.63;6372410;27;20114;-78
2023/02/18 12:44:44;;;;;;;7.40;2.53;;;;;;;13.04;89.75;99987.41;6363708;27;20055;-77
2023/02/18 12:47:53;;;;;;;6.38;2.97;;;;;;;13.00;89.87;99976.31;6347405;27;20043;-74
2023/02/18 12:51:24;;;;;;;3.28;2.33;;;;;;;13.14;90.23;99964.84;6360024;27;20047;-75
2023/02/18 12:54:55;;;;;;;5.15;2.50;;;;;;;13.09;89.52;99956.47;6359276;27;20051;-75
2023/02/18 12:58:19;;;;;;;7.97;3.15;;;;;;;13.02;90.12;99961.31;6368160;27;20043;-75
2023/02/18 13:01:41;;;;;;;7.07;3.20;;;;;;;13.05;90.99;99955.03;6368192;27;20482;-78
2023/02/18 13:04:56;;;;;;;4.47;2.58;;;;;;;12.98;89.91;99961.66;6353298;27;20110;-78
2023/02/18 13:08:12;;;;;;;9.35;3.20;;;;;;;13.09;89.17;99964.34;6370727;27;20059;-78
2023/02/18 13:11:36;;;;;;;5.90;3.30;;;;;;;13.01;90.06;99962.28;6364410;27;20046;-78
2023/02/18 13:14:50;;;;;;;6.85;2.60;;;;;;;13.05;90.62;99952.41;6361425;27;20066;-78
2023/02/18 13:17:56;;;;;;;7.35;3.42;;;;;;;13.12;91.99;99948.41;6370884;27;20043;-74
2023/02/18 13:21:05;;;;;;;6.05;2.88;;;;;;;13.17;90.85;99941.03;6365904;27;20040;-74
2023/02/18 13:24:13;;;;;;;3.30;2.20;;;;;;;13.27;91.27;99941.19;6348391;28;20122;-74
2023/02/18 13:27:13;;;;;;;2.63;1.90;;;;;;;13.25;90.95;99936.06;6370271;27;20502;-74
2023/02/18 13:30:18;;;;;;;3.65;2.03;;;;;;;13.34;90.52;99939.81;6378954;27;20117;-78
2023/02/18 13:33:43;;;;;;;4.78;2.60;;;;;;;13.26;91.52;99937.75;6378530;27;20059;-78
2023/02/18 13:36:50;;;;;;;3.83;2.30;;;;;;;13.20;90.65;99938.19;6379072;27;20050;-78
2023/02/18 13:39:55;;;;;;;3.15;1.83;;;;;;;13.01;91.41;99936.09;6378818;27;20043;-73
2023/02/18 13:43:18;;;;;;;3.85;1.80;;;;;;;12.93;90.94;99935.81;6379834;27;20126;-73
2023/02/18 13:46:20;;;;;;;5.68;2.05;;;;;;;12.78;89.03;99936.91;6378206;27;20493;-72
2023/02/18 13:49:38;;;;;;;4.85;2.70;;;;;;;12.84;86.82;99926.00;6379680;27;20039;-72
2023/02/18 13:52:39;;;;;;;4.18;2.22;;;;;;;12.87;86.14;99924.00;6378458;27;20394;-72
2023/02/18 13:55:49;;;;;;;2.60;1.67;;;;;;;12.85;83.83;99920.66;6379715;27;20043;-73
2023/02/18 13:59:01;;;;;;;3.67;2.15;;;;;;;12.94;82.82;99929.63;6379434;27;20066;-73
2023/02/18 14:02:18;;;;;;;3.35;1.85;;;;;;;12.93;84.27;99922.72;6355947;27;20105;-73
2023/02/18 14:05:22;;;;;;;3.25;1.73;;;;;;;12.88;84.29;99920.41;6352807;28;20043;-72
2023/02/18 14:08:38;;;;;;;1.95;1.27;;;;;;;12.78;84.92;99914.19;6354798;28;20046;-76
2023/02/18 14:12:00;;;;;;;3.90;1.75;;;;;;;12.76;85.30;99908.22;6354491;27;20040;-76
2023/02/18 14:15:08;;;;;;;3.95;1.77;;;;;;;12.75;86.31;99903.13;6321683;28;20489;-76
2023/02/18 14:18:12;;;;;;;4.05;2.00;;;;;;;12.67;86.09;99896.63;6356363;27;20043;-76
2023/02/18 14:21:13;;;;;;;10.57;3.10;;;;;;;12.70;86.80;99892.97;6352793;28;20039;-73
2023/02/18 14:24:45;;;;;;;6.55;3.22;;;;;;;12.58;87.15;99883.38;6352446;28;20418;-74
2023/02/18 14:27:50;;;;;;;10.07;2.92;;;;;;;12.51;87.83;99893.44;6352476;28;20081;-73
2023/02/18 14:30:56;;;;;;;7.57;1.98;;;;;;;12.53;88.33;99890.72;6356947;27;20035;-77
2023/02/18 14:34:15;;;;;;;3.63;1.88;;;;;;;12.50;89.10;99878.72;6378006;27;20062;-76